Time;durP1;ratioP1;P1;durP2;ratioP2;P2;SDS_P1;SDS_P2;PMS_P1;PMS_P2;Temp;Humidity;BMP_temperature;BMP_pressure;BME280_temperature;BME280_humidity;BME280_pressure;Samples;Min_cycle;Max_cycle;Signal;HPM_P1;HPM_P2
2020/12/27 00:00:09;;;;;;;4.85;1.88;;;6.60;82.40;;;6.26;69.39;99630.28;4976225;28;20047;-81
2020/12/27 00:02:37;;;;;;;4.57;1.80;;;6.70;82.10;;;6.24;68.96;99618.81;4976601;28;20043;-81
2020/12/27 00:05:05;;;;;;;4.35;1.98;;;6.70;82.10;;;6.17;69.83;99599.78;4976763;28;20498;-82
2020/12/27 00:07:32;;;;;;;4.70;2.25;;;6.70;82.30;;;6.28;69.54;99594.97;4976365;28;20077;-81
2020/12/27 00:09:59;;;;;;;5.60;1.90;;;6.70;82.30;;;6.28;69.30;99578.75;4976764;28;20129;-82
2020/12/27 00:12:25;;;;;;;3.72;1.40;;;6.70;81.70;;;6.29;69.74;99577.75;4976336;28;20136;-81
2020/12/27 00:14:52;;;;;;;3.53;1.55;;;6.70;82.30;;;6.28;69.01;99562.56;4976614;28;20047;-82
2020/12/27 00:17:19;;;;;;;3.58;1.63;;;6.70;81.70;;;6.22;68.84;99537.09;4976414;28;20447;-81
2020/12/27 00:19:47;;;;;;;3.40;1.70;;;6.70;81.10;;;6.26;69.47;99538.41;4980123;28;20085;-82
2020/12/27 00:22:14;;;;;;;3.83;1.92;;;6.80;82.00;;;6.26;69.03;99547.38;4981153;28;20463;-81
2020/12/27 00:24:40;;;;;;;4.03;1.70;;;6.80;81.90;;;6.26;69.17;99541.97;4980788;28;20577;-81
2020/12/27 00:27:07;;;;;;;4.13;1.60;;;6.70;81.40;;;6.32;69.23;99531.44;4980376;28;20130;-81
2020/12/27 00:29:34;;;;;;;4.57;2.05;;;6.70;81.50;;;6.42;68.88;99537.47;4980350;28;20051;-81
2020/12/27 00:32:00;;;;;;;3.38;1.80;;;6.70;82.00;;;6.34;69.00;99538.38;4980163;28;20078;-82
2020/12/27 00:34:27;;;;;;;3.40;1.52;;;6.70;81.60;;;6.28;68.07;99513.91;4980231;28;20133;-81
2020/12/27 00:36:58;;;;;;;5.95;2.15;;;6.70;80.90;;;6.14;68.81;99502.06;4980961;28;20094;-81
2020/12/27 00:39:25;;;;;;;2.88;1.50;;;6.70;81.20;;;6.26;69.02;99504.16;4980134;28;20502;-81
2020/12/27 00:41:52;;;;;;;3.80;1.80;;;6.70;81.50;;;6.21;68.99;99479.53;4980569;28;20069;-82
2020/12/27 00:44:19;;;;;;;2.90;1.50;;;6.60;81.60;;;6.29;68.78;99477.78;4980021;28;20074;-81
2020/12/27 00:46:49;;;;;;;4.07;1.70;;;6.60;81.50;;;6.37;68.71;99469.59;4980298;28;20043;-82
2020/12/27 00:49:16;;;;;;;4.47;1.60;;;6.60;81.70;;;6.37;68.39;99469.59;4980111;28;20051;-81
2020/12/27 00:51:43;;;;;;;4.25;1.65;;;6.70;81.40;;;6.22;68.00;99456.88;4980680;28;20046;-81
2020/12/27 00:54:11;;;;;;;5.13;1.48;;;6.70;80.90;;;6.12;68.57;99459.00;4981045;28;20046;-82
2020/12/27 00:56:38;;;;;;;4.13;1.77;;;6.70;80.60;;;6.21;68.87;99444.41;4979934;28;20069;-81
2020/12/27 00:59:13;;;;;;;2.40;1.30;;;6.60;81.40;;;6.17;68.95;99431.44;4962177;28;20267;-81
2020/12/27 01:01:42;;;;;;;3.28;1.70;;;6.60;81.20;;;6.08;69.11;99422.59;4980273;28;20074;-81
2020/12/27 01:04:28;;;;;;;2.97;1.50;;;6.60;81.40;;;6.18;68.46;99412.34;4980138;28;20066;-81
2020/12/27 01:06:57;;;;;;;3.92;1.38;;;6.70;81.10;;;6.10;68.78;99414.31;4962883;28;20081;-81
2020/12/27 01:09:26;;;;;;;4.32;1.50;;;6.60;81.20;;;6.13;68.12;99406.69;4962067;28;20070;-81
2020/12/27 01:11:52;;;;;;;3.90;1.63;;;6.60;80.90;;;6.14;68.59;99412.91;4979916;28;20050;-81
2020/12/27 01:14:20;;;;;;;4.13;1.50;;;6.60;81.30;;;6.14;68.83;99410.22;4962492;28;20583;-82
2020/12/27 01:16:53;;;;;;;3.42;1.73;;;6.60;81.40;;;6.07;68.97;99394.75;4961883;28;20062;-81
2020/12/27 01:19:24;;;;;;;4.03;1.58;;;6.60;80.70;;;6.16;69.21;99398.19;4962611;28;20455;-81
2020/12/27 01:21:53;;;;;;;2.97;1.60;;;6.60;81.50;;;6.28;69.33;99401.28;4962563;28;20482;-81
2020/12/27 01:24:28;;;;;;;3.00;1.55;;;6.60;81.80;;;6.32;69.09;99396.34;4962077;28;20070;-81
2020/12/27 01:26:55;;;;;;;4.00;1.45;;;6.50;81.90;;;6.31;68.20;99394.69;4961853;28;20062;-81
2020/12/27 01:29:21;;;;;;;2.80;1.25;;;6.60;81.60;;;6.24;68.31;99384.63;4961399;28;20047;-81
2020/12/27 01:32:01;;;;;;;2.88;1.13;;;6.60;81.10;;;6.14;68.26;99373.22;4962307;28;20061;-81
2020/12/27 01:34:39;;;;;;;3.42;1.55;;;6.60;81.00;;;6.20;69.09;99350.03;4961876;28;20070;-81
2020/12/27 01:37:07;;;;;;;2.63;1.35;;;6.60;81.20;;;6.19;68.88;99303.28;4961612;28;20047;-81
2020/12/27 01:39:43;;;;;;;3.30;1.40;;;6.60;81.10;;;6.15;67.84;99304.69;4961797;28;20055;-82
2020/12/27 01:42:10;;;;;;;3.72;1.30;;;6.70;80.80;;;6.18;68.00;99289.94;4960956;28;20125;-82
2020/12/27 01:44:36;;;;;;;3.10;1.27;;;6.60;80.50;;;6.17;68.60;99290.97;4961382;28;20053;-81
2020/12/27 01:47:19;;;;;;;2.35;1.25;;;6.60;80.30;;;6.17;68.16;99308.03;4961999;28;20046;-81
2020/12/27 01:49:47;;;;;;;2.58;1.10;;;6.60;80.50;;;6.06;68.11;99286.88;4961341;28;20498;-82
2020/12/27 01:52:14;;;;;;;3.55;1.30;;;6.60;80.50;;;6.03;68.24;99279.97;4962054;28;20058;-81
2020/12/27 01:55:02;;;;;;;2.92;1.25;;;6.60;80.20;;;5.95;68.18;99281.91;4961846;28;20553;-81
2020/12/27 01:57:59;;;;;;;3.00;1.58;;;6.60;79.60;;;6.03;68.16;99262.94;4961407;28;20047;-81
2020/12/27 02:00:26;;;;;;;3.15;1.50;;;6.60;80.60;;;6.03;68.26;99252.13;4961557;28;20078;-82
2020/12/27 02:03:13;;;;;;;2.95;1.35;;;6.60;80.40;;;6.04;68.66;99240.31;4978573;28;20051;-81
2020/12/27 02:05:43;;;;;;;2.78;1.20;;;6.50;81.20;;;6.07;68.17;99224.59;4961155;28;20062;-81
2020/12/27 02:08:13;;;;;;;4.13;1.43;;;6.50;81.00;;;6.00;67.86;99209.31;4960904;28;20046;-81
2020/12/27 02:10:53;;;;;;;;;;;6.60;80.00;;;5.95;68.65;99214.41;4961390;28;20067;-81
2020/12/27 02:13:20;;;;;;;3.72;1.40;;;6.50;80.70;;;5.96;68.30;99202.59;4961034;28;19929;-82
2020/12/27 02:15:47;;;;;;;2.95;1.23;;;6.60;80.40;;;6.03;68.18;99192.72;4978526;28;20066;-81
2020/12/27 02:18:34;;;;;;;3.15;1.30;;;6.60;80.40;;;5.99;68.10;99199.53;4977633;28;20054;-82
2020/12/27 02:21:04;;;;;;;2.67;1.20;;;6.60;80.30;;;6.01;68.44;99178.56;4961477;28;20430;-82
2020/12/27 02:23:33;;;;;;;2.58;1.20;;;6.50;80.60;;;6.07;68.09;99177.81;4960802;28;20735;-81
2020/12/27 02:26:09;;;;;;;3.45;1.27;;;6.50;80.70;;;6.17;68.56;99167.56;4960996;28;20499;-81
2020/12/27 02:28:42;;;;;;;3.22;1.55;;;6.50;81.00;;;6.24;68.46;99171.19;4960573;28;20117;-81
2020/12/27 02:31:13;;;;;;;3.58;1.30;;;6.50;81.20;;;6.26;67.09;99158.31;4961050;28;20066;-82
2020/12/27 02:34:01;;;;;;;2.72;1.35;;;6.50;80.60;;;6.26;68.08;99160.16;4960403;28;20652;-82
2020/12/27 02:36:30;;;;;;;3.97;1.15;;;6.50;80.90;;;6.14;67.50;99146.31;4960154;28;20074;-82
2020/12/27 02:39:00;;;;;;;3.90;1.27;;;6.50;80.30;;;6.16;67.15;99144.25;4960354;28;20050;-82
2020/12/27 02:41:37;;;;;;;2.88;1.42;;;6.50;80.10;;;6.11;68.07;99144.03;4959206;28;20050;-81
2020/12/27 02:44:12;;;;;;;2.67;1.15;;;6.50;80.60;;;6.11;67.53;99097.25;4960801;28;20062;-81
2020/12/27 02:46:59;;;;;;;3.63;1.40;;;6.50;80.40;;;5.94;67.62;99069.59;4977593;28;20517;-81
2020/12/27 02:49:45;;;;;;;3.25;1.23;;;6.60;80.00;;;5.95;68.29;99071.28;4978600;28;20054;-81
2020/12/27 02:52:12;;;;;;;3.40;1.30;;;6.50;80.00;;;6.00;68.02;99068.91;4959902;28;20055;-82
2020/12/27 02:54:39;;;;;;;3.95;1.20;;;6.60;80.10;;;6.07;67.92;99058.97;4960171;28;20046;-82
2020/12/27 02:57:10;;;;;;;4.60;1.00;;;6.50;80.70;;;5.93;67.46;99041.78;4959901;28;20047;-81
2020/12/27 02:59:37;;;;;;;2.75;1.13;;;6.50;79.80;;;5.98;67.73;99043.94;4959871;28;20051;-82
2020/12/27 03:02:24;;;;;;;2.50;1.10;;;6.50;80.30;;;6.08;67.81;99033.66;4977425;28;20058;-81
2020/12/27 03:05:00;;;;;;;2.50;1.20;;;6.60;80.10;;;5.95;67.71;99022.69;4960382;28;20042;-82
2020/12/27 03:07:27;;;;;;;2.90;1.20;;;6.60;79.40;;;5.97;67.35;99009.84;4959289;28;20043;-81
2020/12/27 03:10:08;;;;;;;2.78;1.25;;;6.60;79.80;;;5.85;67.99;99009.50;4960529;28;20059;-81
2020/12/27 03:12:43;;;;;;;3.25;1.27;;;6.60;79.10;;;5.96;68.04;98998.22;4960416;28;20396;-81
2020/12/27 03:15:11;;;;;;;2.25;0.90;;;6.60;79.40;;;6.06;67.18;98976.31;4960916;28;20519;-81
2020/12/27 03:17:57;;;;;;;2.55;1.00;;;6.60;79.70;;;6.17;68.15;98967.69;4977034;28;20566;-81
2020/12/27 03:20:47;;;;;;;2.72;1.15;;;6.60;80.20;;;6.16;66.77;98955.19;4968924;28;20055;-81
2020/12/27 03:23:15;;;;;;;2.63;1.10;;;6.60;79.30;;;6.02;67.06;98945.31;4977222;28;20039;-82
2020/12/27 03:25:49;;;;;;;1.88;0.98;;;6.60;79.30;;;5.96;67.10;98929.88;4977548;28;20051;-81
2020/12/27 03:28:17;;;;;;;1.80;0.77;;;6.60;78.80;;;5.96;66.82;98913.66;4960217;28;20422;-81
2020/12/27 03:30:50;;;;;;;2.42;0.90;;;6.60;78.70;;;5.90;66.79;98900.91;4959823;28;20059;-81
2020/12/27 03:33:24;;;;;;;4.25;1.10;;;6.60;78.80;;;5.96;67.80;98898.31;4959901;28;20537;-81
2020/12/27 03:35:56;;;;;;;2.58;1.00;;;6.60;79.20;;;5.96;67.06;98886.66;4960252;28;20407;-82
2020/12/27 03:38:25;;;;;;;2.00;0.82;;;6.60;78.70;;;5.98;66.69;98863.03;4959671;28;20050;-81
2020/12/27 03:41:11;;;;;;;1.55;0.80;;;6.60;78.50;;;6.07;67.10;98872.63;4960051;28;20089;-81
2020/12/27 03:43:53;;;;;;;3.35;0.93;;;6.60;79.30;;;6.10;67.47;98866.84;4960068;28;20046;-81
2020/12/27 03:46:35;;;;;;;2.03;1.02;;;6.60;79.10;;;6.02;65.91;98840.00;4959539;28;20059;-81
2020/12/27 03:49:25;;;;;;;2.00;0.70;;;6.60;78.10;;;5.92;66.67;98842.16;4959813;28;20110;-81
2020/12/27 03:52:14;;;;;;;2.17;0.90;;;6.60;78.20;;;5.85;66.89;98840.25;4959377;28;20115;-81
2020/12/27 03:55:01;;;;;;;3.40;0.80;;;6.60;78.20;;;5.99;66.40;98810.69;4977312;28;20043;-81
2020/12/27 03:57:46;;;;;;;3.53;0.80;;;6.60;78.50;;;6.09;66.71;98807.63;4976441;28;20100;-81
2020/12/27 04:00:34;;;;;;;1.42;0.73;;;6.60;78.80;;;6.11;66.03;98806.41;4976183;28;20054;-81
2020/12/27 04:03:17;;;;;;;3.08;0.88;;;6.60;78.50;;;6.04;66.39;98797.44;4959368;28;20058;-81
2020/12/27 04:05:45;;;;;;;2.10;0.80;;;6.60;78.70;;;6.16;66.77;98786.91;4959667;28;20062;-81
2020/12/27 04:08:12;;;;;;;2.30;0.98;;;6.60;78.80;;;6.16;66.56;98771.53;4958291;28;20063;-81
2020/12/27 04:10:43;;;;;;;1.92;0.70;;;6.60;78.90;;;6.21;67.02;98762.84;4959263;28;20055;-82
2020/12/27 04:13:10;;;;;;;1.52;0.70;;;6.70;79.00;;;6.20;66.20;98755.75;4958977;28;20704;-81
2020/12/27 04:15:38;;;;;;;3.55;0.95;;;6.70;78.70;;;6.13;66.14;98761.13;4959139;28;20058;-81
2020/12/27 04:18:13;;;;;;;2.10;0.77;;;6.70;78.00;;;6.19;66.91;98741.41;4958572;28;20478;-81
2020/12/27 04:21:12;;;;;;;2.75;0.93;;;6.70;79.10;;;6.21;65.98;98742.06;4939828;28;20555;-81
2020/12/27 04:23:39;;;;;;;3.42;0.70;;;6.70;78.80;;;6.23;66.87;98739.97;4976748;28;20105;-81
2020/12/27 04:26:06;;;;;;;1.95;0.88;;;6.70;78.60;;;6.32;66.49;98737.09;4959098;28;20068;-82
2020/12/27 04:28:33;;;;;;;3.05;1.10;;;6.70;79.10;;;6.33;66.66;98736.09;4958807;28;20479;-81
2020/12/27 04:31:00;;;;;;;1.58;0.80;;;6.70;78.90;;;6.24;66.43;98722.75;4959363;28;20507;-81
2020/12/27 04:33:36;;;;;;;1.80;0.70;;;6.70;78.60;;;6.07;66.13;98707.91;4959129;28;20053;-82
2020/12/27 04:36:29;;;;;;;2.92;0.65;;;6.70;78.00;;;6.17;66.91;98684.06;4973900;28;20051;-81
2020/12/27 04:38:58;;;;;;;2.20;0.80;;;6.70;78.80;;;6.23;66.76;98685.97;4958791;28;20165;-81
2020/12/27 04:41:26;;;;;;;1.65;0.70;;;6.70;78.90;;;6.18;66.15;98677.63;4958544;28;20358;-81
2020/12/27 04:43:57;;;;;;;1.58;0.57;;;6.70;78.10;;;6.20;66.21;98669.31;4958623;28;20046;-81
2020/12/27 04:46:25;;;;;;;1.60;0.70;;;6.70;78.60;;;6.12;66.63;98651.44;4959032;28;20051;-81
2020/12/27 04:48:58;;;;;;;1.75;0.70;;;6.70;78.00;;;6.07;65.78;98645.78;4957557;28;20267;-81
2020/12/27 04:51:40;;;;;;;2.63;0.70;;;6.70;77.80;;;6.20;66.82;98653.94;4959166;28;20089;-82
2020/12/27 04:54:28;;;;;;;1.75;0.60;;;6.70;78.50;;;6.17;66.40;98640.00;4975346;28;20728;-81
2020/12/27 04:57:21;;;;;;;2.25;0.60;;;6.70;78.10;;;6.17;65.93;98635.47;4952822;28;20047;-82
2020/12/27 04:59:49;;;;;;;1.48;0.60;;;6.90;78.40;;;6.26;65.84;98607.22;4959791;28;20046;-82
2020/12/27 05:02:27;;;;;;;1.40;0.50;;;6.70;78.30;;;6.26;66.17;98604.53;4959578;28;20050;-82
2020/12/27 05:04:56;;;;;;;1.00;0.50;;;6.70;78.50;;;6.32;66.38;98602.88;4961065;28;20055;-82
2020/12/27 05:07:32;;;;;;;1.48;0.65;;;6.70;77.90;;;6.30;65.50;98587.88;4962126;28;20613;-82
2020/12/27 05:10:40;;;;;;;1.90;0.80;;;6.70;77.60;;;6.21;65.15;98579.16;4971024;28;20055;-82
2020/12/27 05:13:08;;;;;;;1.45;0.57;;;6.80;77.20;;;6.14;66.28;98578.31;4962225;28;20051;-82
2020/12/27 05:15:36;;;;;;;2.00;0.68;;;6.80;77.70;;;6.16;66.04;98578.94;4962682;28;20081;-82
2020/12/27 05:18:07;;;;;;;1.08;0.50;;;6.70;77.80;;;6.08;65.69;98563.75;4962723;28;20118;-82
2020/12/27 05:20:41;;;;;;;1.38;0.60;;;6.70;77.20;;;6.14;65.86;98554.81;4962403;28;20114;-83
2020/12/27 05:23:09;;;;;;;1.10;0.50;;;6.70;77.60;;;6.15;65.41;98540.31;4962842;28;20479;-82
2020/12/27 05:25:49;;;;;;;1.65;0.60;;;6.80;77.10;;;6.23;66.44;98544.69;4963212;28;20058;-82
2020/12/27 05:28:26;;;;;;;2.53;0.50;;;6.80;78.00;;;6.23;65.80;98537.41;4962658;28;20051;-82
2020/12/27 05:31:13;;;;;;;1.30;0.50;;;6.70;77.80;;;6.13;66.01;98547.78;4980489;28;20042;-82
2020/12/27 05:33:59;;;;;;;2.03;0.60;;;6.80;77.50;;;6.08;66.07;98542.16;4980938;28;20144;-82
2020/12/27 05:36:27;;;;;;;0.88;0.50;;;6.80;77.70;;;6.14;66.45;98545.91;4979722;28;20081;-82
2020/12/27 05:39:00;;;;;;;2.67;0.73;;;6.80;77.60;;;6.16;65.90;98539.25;4962198;28;20046;-82
2020/12/27 05:41:33;;;;;;;1.30;0.50;;;6.80;77.40;;;6.22;66.64;98516.81;4980007;28;20074;-82
2020/12/27 05:44:20;;;;;;;0.65;0.40;;;7.00;78.10;;;6.29;66.34;98519.53;4962688;28;20054;-82
2020/12/27 05:46:52;;;;;;;2.00;0.55;;;6.80;77.80;;;6.37;65.76;98502.28;4962571;28;20066;-82
2020/12/27 05:49:24;;;;;;;2.33;0.65;;;6.70;78.00;;;6.33;65.47;98484.84;4961706;28;20076;-82
2020/12/27 05:51:56;;;;;;;1.13;0.50;;;6.80;77.70;;;6.33;65.96;98492.94;4961783;28;20070;-83
2020/12/27 05:54:34;;;;;;;1.75;0.80;;;6.80;77.80;;;6.41;65.69;98484.63;4962254;28;20397;-82
2020/12/27 05:57:05;;;;;;;2.30;0.50;;;6.80;78.30;;;6.37;65.87;98484.19;4961260;28;20066;-82
2020/12/27 05:59:36;;;;;;;1.48;0.60;;;6.80;78.10;;;6.29;65.36;98478.19;4961658;28;20065;-82
2020/12/27 06:02:40;;;;;;;1.25;0.57;;;6.80;77.40;;;6.25;65.12;98459.69;4962705;28;20077;-82
2020/12/27 06:05:15;;;;;;;1.10;0.50;;;6.80;77.40;;;6.26;65.75;98457.81;4961784;28;20058;-82
2020/12/27 06:07:44;;;;;;;1.33;0.50;;;6.80;77.20;;;6.19;66.14;98452.41;4961805;28;20046;-82
2020/12/27 06:10:14;;;;;;;1.92;0.55;;;6.80;77.40;;;6.24;66.78;98433.72;4962118;28;20537;-82
2020/12/27 06:13:28;;;;;;;1.23;0.60;;;6.80;78.00;;;6.26;65.37;98425.41;4962241;28;20051;-82
2020/12/27 06:16:24;;;;;;;1.20;0.60;;;6.80;77.80;;;6.26;65.99;98409.19;4979131;28;20515;-82
2020/12/27 06:19:34;;;;;;;1.85;0.60;;;6.90;77.70;;;6.23;66.18;98399.66;4977905;28;20043;-82
2020/12/27 06:22:05;;;;;;;1.33;0.52;;;6.80;77.70;;;6.36;65.99;98382.59;4961763;28;20058;-82
2020/12/27 06:24:38;;;;;;;1.02;0.60;;;6.90;77.90;;;6.36;65.72;98376.34;4961851;28;20109;-82
2020/12/27 06:27:06;;;;;;;1.17;0.50;;;6.80;78.00;;;6.35;65.73;98366.59;4962078;28;20047;-82
2020/12/27 06:29:39;;;;;;;1.10;0.50;;;6.80;77.50;;;6.30;66.08;98369.09;4961861;28;20414;-82
2020/12/27 06:32:08;;;;;;;1.42;0.52;;;6.90;77.60;;;6.33;65.90;98355.16;4961686;28;20802;-83
2020/12/27 06:34:48;;;;;;;1.10;0.60;;;6.90;77.70;;;6.39;65.94;98343.50;4961022;28;20074;-82
2020/12/27 06:37:20;;;;;;;;;;;6.90;77.90;;;6.29;65.56;98321.53;4961427;28;20078;-82
2020/12/27 06:40:22;;;;;;;2.65;0.63;;;6.90;77.10;;;6.29;65.95;98322.34;4963065;28;19930;-82
2020/12/27 06:43:20;;;;;;;1.73;0.80;;;6.90;77.80;;;6.37;66.59;98318.59;4961443;28;20058;-82
2020/12/27 06:46:21;;;;;;;1.02;0.52;;;6.90;78.30;;;6.34;66.32;98327.09;4961596;28;20054;-82
2020/12/27 06:49:10;;;;;;;2.13;0.60;;;6.90;77.90;;;6.28;66.16;98309.03;4961006;28;20616;-82
2020/12/27 06:52:21;;;;;;;1.52;0.60;;;6.90;77.70;;;6.33;66.57;98296.56;4975169;28;20511;-82
2020/12/27 06:55:37;;;;;;;1.88;0.60;;;6.90;77.90;;;6.31;65.91;98287.84;4899472;29;20048;-82
2020/12/27 06:58:23;;;;;;;1.40;0.50;;;6.90;77.70;;;6.36;65.93;98284.50;4898308;29;20327;-82
2020/12/27 07:01:11;;;;;;;1.33;0.60;;;6.90;77.70;;;6.25;66.60;98262.50;4938115;28;20530;-82
2020/12/27 07:03:38;;;;;;;0.85;0.50;;;6.90;77.70;;;6.37;65.97;98270.78;4978130;28;20102;-82
2020/12/27 07:06:20;;;;;;;1.02;0.50;;;6.90;78.10;;;6.30;65.56;98251.06;4978305;28;20586;-82
2020/12/27 07:08:49;;;;;;;1.23;0.50;;;6.90;76.90;;;6.40;66.08;98258.72;4977238;28;20085;-82
2020/12/27 07:11:21;;;;;;;1.10;0.50;;;6.90;78.00;;;6.30;65.72;98252.94;4976073;28;20042;-83
2020/12/27 07:13:53;;;;;;;0.90;0.45;;;7.00;77.50;;;6.30;65.50;98247.53;4977732;28;20046;-82
2020/12/27 07:16:29;;;;;;;4.28;0.50;;;7.10;77.10;;;6.26;66.00;98223.66;4977694;28;20067;-82
2020/12/27 07:19:03;;;;;;;0.80;0.40;;;7.00;77.10;;;6.41;65.99;98214.44;4977588;28;20081;-82
2020/12/27 07:21:30;;;;;;;1.20;0.50;;;7.00;77.80;;;6.49;66.08;98210.69;4977985;28;20062;-82
2020/12/27 07:24:21;;;;;;;1.30;0.60;;;7.00;77.90;;;6.42;65.73;98189.94;4977931;28;20047;-82
2020/12/27 07:26:49;;;;;;;1.05;0.50;;;7.00;76.90;;;6.38;65.69;98206.78;4977087;28;20400;-82
2020/12/27 07:29:20;;;;;;;1.02;0.50;;;7.00;77.00;;;6.33;66.39;98203.91;4976204;28;20165;-82
2020/12/27 07:31:47;;;;;;;1.15;0.57;;;7.00;77.50;;;6.36;65.70;98193.50;4977179;28;20074;-82
2020/12/27 07:34:15;;;;;;;1.42;0.50;;;7.00;77.50;;;6.28;66.18;98201.00;4977009;28;20077;-82
2020/12/27 07:36:43;;;;;;;1.83;0.75;;;7.00;77.50;;;6.35;66.83;98185.59;4976928;28;20487;-82
2020/12/27 07:39:11;;;;;;;3.25;0.60;;;7.00;78.00;;;6.39;66.50;98168.72;4977061;28;20556;-82
2020/12/27 07:41:40;;;;;;;1.50;0.60;;;7.00;77.40;;;6.45;66.62;98183.25;4977452;28;20086;-82
2020/12/27 07:44:12;;;;;;;3.63;0.95;;;7.00;78.20;;;6.34;66.70;98165.03;4976947;28;20046;-82
2020/12/27 07:46:39;;;;;;;2.45;0.60;;;7.00;77.80;;;6.33;67.12;98149.88;4977086;28;20137;-82
2020/12/27 07:49:08;;;;;;;1.00;0.50;;;7.00;78.30;;;6.33;67.63;98152.56;4976590;28;20077;-82
2020/12/27 07:51:35;;;;;;;0.88;0.43;;;7.00;78.70;;;6.33;67.24;98139.06;4976721;28;20073;-82
2020/12/27 07:54:03;;;;;;;6.50;0.68;;;7.00;78.30;;;6.25;67.20;98118.53;4976806;28;20047;-82
2020/12/27 07:56:31;;;;;;;0.70;0.30;;;7.00;78.60;;;6.23;67.41;98124.16;4977212;28;20110;-82
2020/12/27 07:59:00;;;;;;;1.05;0.40;;;7.00;78.30;;;6.27;67.01;98119.16;4976350;28;20094;-82
2020/12/27 08:01:28;;;;;;;1.58;0.40;;;7.00;78.00;;;6.29;66.24;98100.03;4977482;28;20063;-82
2020/12/27 08:03:58;;;;;;;1.45;0.63;;;7.00;77.80;;;6.16;66.52;98101.75;4977537;28;20046;-82
2020/12/27 08:06:27;;;;;;;1.58;0.60;;;7.00;77.20;;;6.20;66.87;98096.75;4977798;28;20070;-82
2020/12/27 08:09:02;;;;;;;1.08;0.50;;;7.10;77.90;;;6.20;67.35;98085.94;4976781;28;20047;-83
2020/12/27 08:11:38;;;;;;;0.88;0.40;;;7.00;78.00;;;6.21;67.28;98077.63;4978854;28;20376;-84
2020/12/27 08:14:08;;;;;;;2.78;0.60;;;7.00;78.30;;;6.28;66.45;98055.16;4977746;28;20082;-83
2020/12/27 08:16:37;;;;;;;1.38;0.60;;;7.00;77.70;;;6.28;66.04;98049.75;4978673;28;20079;-83
2020/12/27 08:19:07;;;;;;;1.65;0.60;;;7.00;77.20;;;6.37;66.98;98053.84;4977702;28;20043;-83
2020/12/27 08:21:35;;;;;;;0.90;0.50;;;7.00;77.80;;;6.37;66.68;98057.38;4977095;28;20090;-83
2020/12/27 08:24:05;;;;;;;0.40;0.32;;;7.00;77.70;;;6.38;67.04;98042.00;4977150;28;20089;-82
2020/12/27 08:26:34;;;;;;;1.08;0.40;;;7.00;77.90;;;6.39;66.10;98046.34;4976529;28;20102;-82
2020/12/27 08:29:13;;;;;;;2.13;0.57;;;7.10;77.60;;;6.39;66.26;98030.13;4976388;28;20496;-82
2020/12/27 08:31:41;;;;;;;1.35;0.60;;;7.10;77.70;;;6.44;66.68;98019.50;4977886;28;20053;-83
2020/12/27 08:34:11;;;;;;;1.08;0.50;;;7.10;78.00;;;6.44;66.96;98000.59;4978937;28;20062;-84
2020/12/27 08:36:39;;;;;;;0.75;0.47;;;7.10;77.90;;;6.46;66.50;98003.91;4977243;28;20125;-83
2020/12/27 08:39:25;;;;;;;1.42;0.50;;;7.10;77.90;;;6.46;66.38;97987.69;4978148;28;20069;-84
2020/12/27 08:42:12;;;;;;;1.20;0.50;;;7.10;77.50;;;6.53;66.67;97993.03;4979896;28;20787;-84
2020/12/27 08:44:45;;;;;;;3.30;0.77;;;7.10;77.80;;;6.55;66.83;97959.34;4980775;28;20046;-83
2020/12/27 08:47:34;;;;;;;1.88;0.70;;;7.20;78.00;;;6.54;66.32;97963.09;4980515;28;20117;-84
2020/12/27 08:50:07;;;;;;;1.23;0.57;;;7.20;77.40;;;6.55;66.08;97953.94;4980562;28;20042;-84
2020/12/27 08:52:34;;;;;;;2.10;0.90;;;7.20;77.40;;;6.54;66.89;97960.38;4980087;28;20577;-84
2020/12/27 08:55:04;;;;;;;5.03;1.67;;;7.20;77.70;;;6.53;66.16;97936.28;4980528;28;20039;-84
2020/12/27 08:57:32;;;;;;;6.53;2.08;;;7.20;77.50;;;6.37;66.85;97930.41;4962391;28;20517;-84
2020/12/27 09:00:09;;;;;;;3.20;1.10;;;7.20;77.30;;;6.38;66.86;97915.03;4962023;28;20137;-84
2020/12/27 09:02:36;;;;;;;2.05;0.90;;;7.20;77.70;;;6.36;67.41;97919.81;4980348;28;20517;-84
2020/12/27 09:05:10;;;;;;;1.80;0.73;;;7.20;77.70;;;6.29;67.34;97911.78;4962120;28;20100;-84
2020/12/27 09:07:39;;;;;;;1.77;0.80;;;7.20;77.60;;;6.32;67.56;97895.16;4979673;28;20418;-84
2020/12/27 09:10:11;;;;;;;1.98;0.80;;;7.30;78.20;;;6.40;67.52;97889.44;4961529;28;20418;-84
2020/12/27 09:12:40;;;;;;;2.90;0.57;;;7.20;78.00;;;6.29;67.17;97876.66;4979058;28;20055;-84
2020/12/27 09:15:25;;;;;;;1.20;0.55;;;7.20;77.30;;;6.40;66.85;97885.94;4961502;28;20085;-84
2020/12/27 09:18:03;;;;;;;2.45;0.60;;;7.20;77.80;;;6.52;67.19;97865.22;4977718;28;20043;-84
2020/12/27 09:20:32;;;;;;;2.10;0.60;;;7.20;78.40;;;6.56;66.81;97849.38;4978641;28;20086;-84
2020/12/27 09:23:00;;;;;;;2.25;0.68;;;7.20;78.10;;;6.56;67.17;97852.91;4979256;28;20070;-84
2020/12/27 09:25:30;;;;;;;1.30;0.60;;;7.20;77.90;;;6.64;66.88;97849.94;4979296;28;20126;-83
2020/12/27 09:27:56;;;;;;;2.80;0.90;;;7.20;78.20;;;6.56;66.36;97828.59;4977190;28;20058;-84
2020/12/27 09:30:26;;;;;;;2.30;0.60;;;7.30;77.50;;;6.52;66.80;97838.19;4976128;28;20043;-85
2020/12/27 09:33:00;;;;;;;3.38;1.15;;;7.30;77.80;;;6.60;66.87;97831.66;4975781;28;20042;-85
2020/12/27 09:35:29;;;;;;;1.73;0.60;;;7.30;77.60;;;6.64;66.93;97822.91;4975792;28;20082;-85
2020/12/27 09:37:55;;;;;;;2.00;0.95;;;7.30;78.00;;;6.61;67.73;97828.75;4956736;28;20074;-84
2020/12/27 09:40:22;;;;;;;1.60;0.73;;;7.20;78.70;;;6.57;68.67;97824.84;4959093;28;20057;-84
2020/12/27 09:43:00;;;;;;;1.38;0.63;;;7.30;79.30;;;6.55;69.03;97821.56;4975915;28;20122;-84
2020/12/27 09:45:28;;;;;;;1.60;0.60;;;7.30;79.60;;;6.46;68.97;97798.59;4975673;28;20049;-85
2020/12/27 09:47:57;;;;;;;1.55;0.77;;;7.20;79.50;;;6.46;69.81;97809.38;4974946;28;20042;-85
2020/12/27 09:50:34;;;;;;;3.15;0.55;;;7.20;80.00;;;6.45;70.24;97783.41;4975302;28;20130;-85
2020/12/27 09:53:02;;;;;;;2.95;0.60;;;7.20;80.20;;;6.47;69.73;97778.59;4976298;28;20454;-84
2020/12/27 09:55:30;;;;;;;1.20;0.60;;;7.20;80.30;;;6.54;69.38;97771.25;4976520;28;20070;-86
2020/12/27 09:57:57;;;;;;;1.38;0.60;;;7.20;80.30;;;6.42;69.75;97757.69;4975674;28;20049;-85
2020/12/27 10:00:24;;;;;;;1.85;0.57;;;7.20;80.30;;;6.39;70.12;97750.03;4958272;28;20109;-85
2020/12/27 10:02:52;;;;;;;1.63;0.60;;;7.30;81.00;;;6.44;69.70;97741.25;4975626;28;20760;-85
2020/12/27 10:05:19;;;;;;;1.67;0.68;;;7.10;80.90;;;6.41;70.39;97728.19;4974051;28;21364;-85
2020/12/27 10:07:58;;;;;;;2.28;0.70;;;7.10;80.80;;;6.38;70.15;97721.38;4954136;28;20074;-85
2020/12/27 10:10:40;;;;;;;1.38;0.68;;;7.10;80.90;;;6.35;70.24;97707.50;4960854;28;20126;-85
2020/12/27 10:13:06;;;;;;;1.73;0.68;;;7.10;80.50;;;6.43;69.52;97709.88;4961339;28;20496;-86
2020/12/27 10:15:33;;;;;;;1.60;0.70;;;7.10;80.60;;;6.44;69.64;97703.44;4950367;29;20047;-85
2020/12/27 10:18:01;;;;;;;2.20;0.80;;;7.10;80.80;;;6.44;70.43;97692.63;4963862;28;20075;-86
2020/12/27 10:20:28;;;;;;;1.25;0.73;;;7.10;80.80;;;6.42;69.74;97673.94;4956868;28;20590;-85
2020/12/27 10:22:54;;;;;;;1.48;0.60;;;7.10;80.50;;;6.25;69.83;97673.72;4967493;28;20070;-85
2020/12/27 10:25:21;;;;;;;1.75;0.70;;;7.10;80.20;;;6.37;70.65;97670.28;4952321;28;20086;-85
2020/12/27 10:27:48;;;;;;;1.75;0.60;;;7.20;80.90;;;6.31;70.59;97658.50;4955052;28;20363;-86
2020/12/27 10:30:15;;;;;;;2.15;0.80;;;7.10;80.90;;;6.48;70.80;97655.19;4974720;28;20070;-86
2020/12/27 10:32:42;;;;;;;1.33;0.57;;;7.10;81.60;;;6.39;69.96;97630.34;4955459;28;20426;-85
2020/12/27 10:35:09;;;;;;;1.95;0.60;;;7.20;80.60;;;6.34;70.14;97627.50;4970369;28;20415;-86
2020/12/27 10:37:36;;;;;;;2.78;0.60;;;7.20;80.40;;;6.35;70.56;97610.25;4973385;28;20047;-85
2020/12/27 10:40:03;;;;;;;3.50;0.60;;;7.10;80.60;;;6.45;70.10;97608.66;4974359;28;20506;-85
2020/12/27 10:42:30;;;;;;;1.73;0.80;;;7.20;80.80;;;6.43;69.72;97599.94;4974788;28;20050;-85
2020/12/27 10:44:56;;;;;;;1.38;0.60;;;7.10;80.70;;;6.45;70.28;97592.44;4969424;28;20511;-85
2020/12/27 10:47:23;;;;;;;1.80;0.77;;;7.20;80.80;;;6.47;71.06;97600.31;4972204;28;20138;-85
2020/12/27 10:49:50;;;;;;;1.17;0.60;;;7.20;81.30;;;6.42;70.75;97575.88;4970860;28;20051;-85
2020/12/27 10:52:17;;;;;;;2.15;0.65;;;7.20;81.30;;;6.36;71.88;97582.19;4970622;28;20050;-84
2020/12/27 10:54:44;;;;;;;1.23;0.50;;;7.20;81.90;;;6.35;72.20;97540.03;4954882;28;20121;-85
2020/12/27 10:57:11;;;;;;;1.52;0.70;;;7.20;81.90;;;6.41;72.08;97539.09;4957262;28;20869;-85
2020/12/27 10:59:38;;;;;;;2.03;0.60;;;7.20;81.90;;;6.29;71.75;97549.06;4974548;28;20045;-85